Time;durP1;ratioP1;P1;durP2;ratioP2;P2;SDS_P1;SDS_P2;PMS_P1;PMS_P2;Temp;Humidity;BMP_temperature;BMP_pressure;BME280_temperature;BME280_humidity;BME280_pressure;Samples;Min_cycle;Max_cycle;Signal;HPM_P1;HPM_P2
2021/04/20 00:01:35;;;;;;;25.52;14.57;;;;;;;5.84;73.35;99647.47;5032989;28;20097;-52
2021/04/20 00:04:01;;;;;;;30.13;16.40;;;;;;;5.81;72.89;99650.97;5032318;28;20061;-52
2021/04/20 00:06:26;;;;;;;36.10;17.88;;;;;;;5.76;73.58;99657.94;5033152;28;20054;-52
2021/04/20 00:08:52;;;;;;;28.67;16.58;;;;;;;5.75;74.01;99648.44;5033000;28;20443;-52
2021/04/20 00:11:18;;;;;;;29.08;15.38;;;;;;;5.76;73.71;99644.97;5033054;28;20351;-52
2021/04/20 00:13:44;;;;;;;28.60;16.08;;;;;;;5.75;73.25;99644.94;5033042;28;20054;-51
2021/04/20 00:16:09;;;;;;;30.30;15.98;;;;;;;5.73;72.97;99647.56;5033018;28;20053;-52
2021/04/20 00:18:35;;;;;;;27.55;16.48;;;;;;;5.67;72.93;99637.22;5033015;28;20060;-52
2021/04/20 00:21:01;;;;;;;29.02;16.10;;;;;;;5.66;72.84;99640.72;5032766;28;20049;-52
2021/04/20 00:23:26;;;;;;;26.63;15.32;;;;;;;5.65;72.93;99632.91;5032981;28;20444;-52
2021/04/20 00:25:52;;;;;;;31.00;16.67;;;;;;;5.61;73.33;99638.13;5036176;28;20443;-52
2021/04/20 00:28:25;;;;;;;27.23;15.43;;;;;;;5.61;73.43;99632.06;5036109;28;20487;-52
2021/04/20 00:30:50;;;;;;;27.08;15.48;;;;;;;5.50;73.92;99633.91;5036616;28;20427;-52
2021/04/20 00:33:17;;;;;;;25.35;14.32;;;;;;;5.50;73.44;99632.16;5036350;28;20110;-52
2021/04/20 00:35:43;;;;;;;25.00;14.52;;;;;;;5.48;73.50;99633.91;5036285;28;20061;-52
2021/04/20 00:38:08;;;;;;;23.73;15.15;;;;;;;5.45;73.20;99643.44;5035999;28;20400;-52
2021/04/20 00:40:34;;;;;;;24.27;14.10;;;;;;;5.40;73.36;99635.69;5035409;28;20045;-52
2021/04/20 00:43:00;;;;;;;25.95;14.48;;;;;;;5.35;73.19;99632.25;5035118;28;20108;-52
2021/04/20 00:45:27;;;;;;;22.42;13.18;;;;;;;5.31;73.22;99634.03;5035318;28;20054;-52
2021/04/20 00:47:53;;;;;;;22.27;13.43;;;;;;;5.25;73.21;99630.59;5035770;28;20110;-52
2021/04/20 00:50:22;;;;;;;23.83;14.52;;;;;;;5.21;72.88;99621.97;5035604;28;20447;-52
2021/04/20 00:52:48;;;;;;;22.27;12.68;;;;;;;5.15;73.11;99624.59;5019061;28;20046;-51
2021/04/20 00:55:14;;;;;;;20.13;11.93;;;;;;;5.09;73.02;99619.44;5036297;28;20057;-52
2021/04/20 00:57:40;;;;;;;22.45;12.38;;;;;;;5.06;72.91;99622.06;5036131;28;20049;-51
2021/04/20 01:00:12;;;;;;;19.50;11.75;;;;;;;5.05;73.55;99621.19;5035721;28;20041;-51
2021/04/20 01:02:37;;;;;;;23.20;13.82;;;;;;;5.03;73.69;99632.44;5035974;28;20154;-51
2021/04/20 01:05:09;;;;;;;25.73;13.88;;;;;;;5.02;73.63;99617.75;5018688;28;20066;-51
2021/04/20 01:07:35;;;;;;;28.27;15.35;;;;;;;4.90;74.03;99623.88;5035863;28;20340;-51
2021/04/20 01:10:02;;;;;;;30.70;15.23;;;;;;;4.89;73.90;99612.63;5034638;28;20038;-51
2021/04/20 01:12:29;;;;;;;26.38;15.10;;;;;;;4.86;74.18;99614.38;5035727;28;20050;-51
2021/04/20 01:14:55;;;;;;;32.35;18.55;;;;;;;4.61;77.38;99611.88;5035151;28;20037;-52
2021/04/20 01:17:25;;;;;;;31.15;17.15;;;;;;;4.66;78.70;99619.66;5018447;28;20056;-51
2021/04/20 01:19:53;;;;;;;29.50;16.77;;;;;;;4.68;77.60;99618.78;5035966;28;20049;-51
2021/04/20 01:22:19;;;;;;;28.85;16.15;;;;;;;4.72;76.95;99616.19;5034745;28;20352;-52
2021/04/20 01:24:45;;;;;;;28.58;16.75;;;;;;;4.72;76.84;99617.03;5018343;28;20046;-51
2021/04/20 01:27:11;;;;;;;25.65;15.82;;;;;;;4.76;76.17;99612.69;5034817;28;20105;-51
2021/04/20 01:29:37;;;;;;;31.50;18.25;;;;;;;4.78;75.85;99621.34;5035343;28;20106;-51
2021/04/20 01:32:02;;;;;;;39.75;20.00;;;;;;;4.75;75.82;99623.97;5034605;28;20359;-51
2021/04/20 01:34:28;;;;;;;52.13;24.25;;;;;;;4.65;76.04;99621.41;5034570;28;20401;-52
2021/04/20 01:36:54;;;;;;;46.40;22.85;;;;;;;4.63;76.49;99620.53;5034575;28;20506;-51
2021/04/20 01:39:19;;;;;;;45.53;23.33;;;;;;;4.60;75.90;99625.72;5034414;28;20354;-51
2021/04/20 01:41:45;;;;;;;45.67;22.00;;;;;;;4.57;75.64;99617.94;5035313;28;20053;-51
2021/04/20 01:44:11;;;;;;;39.08;20.13;;;;;;;4.56;75.53;99625.75;5018544;28;20065;-51
2021/04/20 01:46:37;;;;;;;44.05;21.83;;;;;;;4.55;75.54;99624.00;5035321;28;20117;-51
2021/04/20 01:49:02;;;;;;;41.08;19.67;;;;;;;4.49;75.12;99621.47;5035369;28;20046;-51
2021/04/20 01:51:28;;;;;;;40.28;19.73;;;;;;;4.45;74.97;99624.06;5034741;28;20145;-52
2021/04/20 01:53:54;;;;;;;40.47;21.33;;;;;;;4.40;75.27;99615.44;5034974;28;20045;-51
2021/04/20 01:56:20;;;;;;;46.33;21.85;;;;;;;4.36;75.39;99621.50;5035046;28;20049;-51
2021/04/20 01:58:46;;;;;;;37.03;22.05;;;;;;;4.35;75.21;99618.88;5035025;28;20053;-51
2021/04/20 02:01:12;;;;;;;41.03;22.02;;;;;;;4.34;75.37;99624.94;5035000;28;20064;-51
2021/04/20 02:03:38;;;;;;;40.95;24.10;;;;;;;4.28;75.31;99612.00;5034086;28;20041;-51
2021/04/20 02:06:05;;;;;;;43.03;21.23;;;;;;;4.26;75.37;99613.72;5033771;28;20129;-51
2021/04/20 02:08:31;;;;;;;39.20;20.20;;;;;;;4.21;75.32;99611.16;5033995;28;20045;-51
2021/04/20 02:10:57;;;;;;;38.72;20.27;;;;;;;4.15;75.46;99614.63;5017953;28;20152;-51
2021/04/20 02:13:23;;;;;;;36.10;21.85;;;;;;;4.11;75.58;99609.44;5017613;28;20046;-51
2021/04/20 02:15:49;;;;;;;36.50;19.08;;;;;;;4.09;75.32;99611.19;5017560;28;20056;-51
2021/04/20 02:18:14;;;;;;;31.45;16.70;;;;;;;4.06;75.44;99606.00;5017828;28;20090;-51
2021/04/20 02:20:40;;;;;;;27.95;16.33;;;;;;;4.01;76.36;99603.44;5033830;28;20057;-51
2021/04/20 02:23:06;;;;;;;27.00;15.27;;;;;;;3.97;76.28;99605.16;5033530;28;20378;-51
2021/04/20 02:25:32;;;;;;;23.83;13.82;;;;;;;3.96;76.29;99606.03;5017400;28;20060;-51
2021/04/20 02:27:58;;;;;;;21.15;12.38;;;;;;;3.95;76.06;99609.47;5035105;28;20432;-51
2021/04/20 02:30:24;;;;;;;24.58;13.63;;;;;;;3.93;75.85;99606.03;5033393;28;20050;-51
2021/04/20 02:32:50;;;;;;;27.25;14.10;;;;;;;3.86;76.60;99600.84;5034515;28;20041;-51
2021/04/20 02:35:16;;;;;;;20.55;12.40;;;;;;;3.87;76.42;99613.81;5017476;28;20041;-51
2021/04/20 02:37:42;;;;;;;23.45;11.93;;;;;;;3.85;76.29;99605.16;5034133;28;20068;-51
2021/04/20 02:40:30;;;;;;;24.23;13.10;;;;;;;3.84;75.92;99612.97;5034086;28;20405;-51
2021/04/20 02:42:56;;;;;;;22.35;12.57;;;;;;;3.74;75.48;99607.78;5034419;28;20118;-51
2021/04/20 02:45:24;;;;;;;24.10;12.40;;;;;;;3.74;76.07;99606.91;5017164;28;20053;-51
2021/04/20 02:47:51;;;;;;;20.73;12.80;;;;;;;3.73;77.25;99607.75;5015739;28;20061;-51
2021/04/20 02:50:24;;;;;;;25.45;13.93;;;;;;;3.75;76.73;99606.03;5033877;28;20049;-51
2021/04/20 02:52:51;;;;;;;27.25;14.15;;;;;;;3.71;77.02;99607.78;5033097;28;20447;-51
2021/04/20 02:55:17;;;;;;;29.48;15.98;;;;;;;3.72;77.43;99604.31;5033333;28;20061;-51
2021/04/20 02:57:44;;;;;;;27.00;15.75;;;;;;;3.70;77.86;99606.03;5033877;28;20067;-51
2021/04/20 03:00:11;;;;;;;25.33;14.30;;;;;;;3.73;77.68;99607.75;5034052;28;20053;-51
2021/04/20 03:02:38;;;;;;;32.40;15.73;;;;;;;3.69;77.50;99606.91;5033825;28;20041;-51
2021/04/20 03:05:24;;;;;;;27.98;17.35;;;;;;;3.60;81.08;99601.72;5016880;28;20113;-51
2021/04/20 03:07:50;;;;;;;28.08;15.88;;;;;;;3.63;80.00;99603.47;5032794;28;20050;-51
2021/04/20 03:10:16;;;;;;;29.98;16.15;;;;;;;3.63;79.27;99604.31;5032682;28;20336;-51
2021/04/20 03:12:43;;;;;;;30.55;17.73;;;;;;;3.51;81.04;99600.00;5034212;28;20496;-51
2021/04/20 03:15:10;;;;;;;31.95;18.25;;;;;;;3.42;81.77;99600.00;5033621;28;20045;-51
2021/04/20 03:17:40;;;;;;;33.13;17.77;;;;;;;3.46;81.58;99600.88;5033582;28;20050;-51
2021/04/20 03:20:07;;;;;;;32.72;17.58;;;;;;;3.50;80.89;99595.69;5032959;28;20404;-51
2021/04/20 03:22:33;;;;;;;28.38;17.75;;;;;;;3.54;80.62;99600.84;5033727;28;20049;-51
2021/04/20 03:25:05;;;;;;;26.17;16.20;;;;;;;3.58;79.92;99600.88;5016204;28;20440;-51
2021/04/20 03:27:32;;;;;;;28.75;16.42;;;;;;;3.54;79.74;99598.28;5033695;28;20053;-51
2021/04/20 03:29:57;;;;;;;34.20;19.27;;;;;;;3.53;79.08;99597.41;5016116;28;20370;-51
2021/04/20 03:32:24;;;;;;;31.40;18.05;;;;;;;3.49;78.53;99599.13;5032483;28;20072;-51
2021/04/20 03:35:08;;;;;;;32.67;18.40;;;;;;;3.56;78.66;99591.38;5016404;28;20073;-51
2021/04/20 03:37:44;;;;;;;34.45;17.83;;;;;;;3.51;78.53;99593.97;5033634;28;20042;-51
2021/04/20 03:40:10;;;;;;;28.48;17.48;;;;;;;3.50;78.74;99594.81;5032429;28;20109;-51
2021/04/20 03:42:40;;;;;;;29.73;17.65;;;;;;;3.52;78.29;99595.69;5032577;28;20049;-51
2021/04/20 03:45:10;;;;;;;27.02;16.65;;;;;;;3.52;78.19;99587.94;5032560;28;20045;-51
2021/04/20 03:47:54;;;;;;;30.63;17.30;;;;;;;3.50;78.23;99579.28;5032840;28;20114;-51
2021/04/20 03:50:23;;;;;;;28.27;16.73;;;;;;;3.49;78.26;99577.56;5032203;28;20211;-51
2021/04/20 03:52:50;;;;;;;26.70;15.57;;;;;;;3.47;78.22;99577.53;5032560;28;20045;-51
2021/04/20 03:55:18;;;;;;;26.83;14.88;;;;;;;3.47;78.37;99587.91;5015957;28;20056;-51
2021/04/20 03:57:45;;;;;;;37.85;22.60;;;;;;;3.41;78.80;99579.28;5032158;28;20106;-51
2021/04/20 04:00:15;;;;;;;39.03;22.80;;;;;;;3.36;79.83;99583.59;5015381;28;20041;-51
2021/04/20 04:02:42;;;;;;;36.47;21.83;;;;;;;3.36;80.19;99578.44;5016306;28;20049;-51
2021/04/20 04:05:08;;;;;;;35.85;22.05;;;;;;;3.43;79.73;99581.00;5032121;28;20098;-51
2021/04/20 04:07:35;;;;;;;31.92;20.05;;;;;;;3.48;79.29;99581.88;5016005;28;20076;-51
2021/04/20 04:10:01;;;;;;;31.38;19.23;;;;;;;3.50;79.02;99587.06;5015681;28;20037;-51
2021/04/20 04:12:27;;;;;;;29.75;18.23;;;;;;;3.51;78.91;99584.47;5032041;28;20041;-51
2021/04/20 04:14:53;;;;;;;30.80;17.67;;;;;;;3.44;80.35;99589.63;5031832;28;20076;-51
2021/04/20 04:17:19;;;;;;;33.08;18.73;;;;;;;3.49;80.76;99601.72;5015868;28;20049;-51
2021/04/20 04:19:45;;;;;;;26.70;16.75;;;;;;;3.59;80.27;99594.81;5015825;28;20130;-51
2021/04/20 04:22:17;;;;;;;25.65;17.05;;;;;;;3.71;79.54;99600.00;5015679;28;20041;-51
2021/04/20 04:24:52;;;;;;;23.88;15.27;;;;;;;3.73;79.44;99598.25;5016107;28;20050;-51
2021/04/20 04:27:20;;;;;;;29.52;16.08;;;;;;;3.82;79.27;99601.72;5031856;28;20044;-51
2021/04/20 04:29:46;;;;;;;24.85;14.70;;;;;;;3.88;79.30;99604.31;5031903;28;20042;-51
2021/04/20 04:32:13;;;;;;;29.13;16.48;;;;;;;3.96;79.47;99606.03;5031788;28;20068;-51
2021/04/20 04:34:39;;;;;;;27.63;16.70;;;;;;;4.04;79.50;99606.00;5015671;28;20112;-51
2021/04/20 04:37:05;;;;;;;31.08;16.95;;;;;;;4.11;79.72;99617.22;5032526;28;20465;-51
2021/04/20 04:39:30;;;;;;;26.40;16.40;;;;;;;4.23;79.61;99617.22;4998978;28;20041;-51
2021/04/20 04:41:56;;;;;;;25.35;15.65;;;;;;;4.35;79.28;99613.69;5032787;28;20060;-51
2021/04/20 04:44:22;;;;;;;31.15;17.88;;;;;;;4.64;79.40;99619.66;5015292;28;20052;-51
2021/04/20 04:46:48;;;;;;;32.20;18.20;;;;;;;4.91;79.37;99618.69;5032379;28;20057;-51
2021/04/20 04:49:13;;;;;;;42.22;22.27;;;;;;;5.37;79.86;99622.72;5032280;28;20102;-51
2021/04/20 04:51:39;;;;;;;50.13;27.20;;;;;;;5.94;78.87;99617.09;5032254;28;20134;-51
2021/04/20 04:54:06;;;;;;;46.58;27.10;;;;;;;6.57;78.17;99626.88;5032627;28;20050;-52
2021/04/20 04:56:33;;;;;;;48.42;25.83;;;;;;;7.18;76.75;99631.25;5031737;28;20072;-52
2021/04/20 04:58:59;;;;;;;51.10;27.35;;;;;;;7.72;75.72;99620.91;5032525;28;20045;-52
2021/04/20 05:01:24;;;;;;;50.10;25.30;;;;;;;8.16;73.84;99622.75;5015294;28;20049;-52
2021/04/20 05:03:50;;;;;;;50.85;27.20;;;;;;;8.49;70.81;99624.78;5031763;28;20050;-52
2021/04/20 05:06:16;;;;;;;63.10;28.08;;;;;;;8.96;70.61;99621.19;5031684;28;20060;-52
2021/04/20 05:08:42;;;;;;;52.22;27.55;;;;;;;9.29;69.94;99616.97;5032395;28;20351;-52
2021/04/20 05:11:08;;;;;;;63.10;31.67;;;;;;;9.38;68.84;99617.66;5032779;28;20424;-52
2021/04/20 05:13:34;;;;;;;60.72;28.88;;;;;;;9.19;68.67;99614.59;5035476;28;20118;-52
2021/04/20 05:16:03;;;;;;;52.13;28.63;;;;;;;9.09;68.18;99614.81;5035734;28;20056;-52
2021/04/20 05:18:29;;;;;;;54.13;29.00;;;;;;;8.90;68.14;99616.09;5018171;28;20042;-52
2021/04/20 05:20:55;;;;;;;61.78;33.13;;;;;;;8.80;68.23;99618.03;5018688;28;20041;-52
2021/04/20 05:23:21;;;;;;;56.08;32.85;;;;;;;8.72;68.03;99627.78;5034866;28;20059;-52
2021/04/20 05:25:46;;;;;;;54.53;31.27;;;;;;;8.64;68.03;99625.34;5034734;28;20037;-52
2021/04/20 05:28:12;;;;;;;47.03;27.17;;;;;;;8.56;68.17;99616.78;5018256;28;20060;-52
2021/04/20 05:30:38;;;;;;;49.67;29.55;;;;;;;8.42;68.64;99627.50;5035528;28;20098;-52
2021/04/20 05:33:04;;;;;;;53.28;29.10;;;;;;;8.42;68.47;99626.66;5035536;28;20435;-52
2021/04/20 05:35:29;;;;;;;55.53;29.83;;;;;;;8.40;68.49;99625.81;5035462;28;20060;-52
2021/04/20 05:37:55;;;;;;;51.67;30.98;;;;;;;8.40;68.72;99621.44;5036151;28;20049;-52
2021/04/20 05:40:22;;;;;;;62.03;32.70;;;;;;;8.46;68.82;99619.63;5035016;28;20042;-52
2021/04/20 05:42:50;;;;;;;68.75;37.30;;;;;;;8.51;68.96;99616.00;5035298;28;20144;-52
2021/04/20 05:45:16;;;;;;;64.93;36.05;;;;;;;8.57;68.83;99622.88;5035295;28;20332;-52
2021/04/20 05:47:44;;;;;;;65.60;34.65;;;;;;;8.84;69.57;99621.47;5034170;28;20056;-52
2021/04/20 05:50:17;;;;;;;68.03;37.53;;;;;;;9.18;68.83;99615.50;5034650;28;20053;-52
2021/04/20 05:52:42;;;;;;;;;;;;;;;9.17;68.18;99619.03;5034828;28;20061;-52
2021/04/20 05:55:08;;;;;;;62.50;34.75;;;;;;;9.42;68.35;99616.69;5035084;28;19921;-52
2021/04/20 05:57:34;;;;;;;61.95;34.63;;;;;;;9.64;67.78;99623.13;5034217;28;20045;-52
2021/04/20 06:00:00;;;;;;;61.10;35.90;;;;;;;9.86;67.47;99633.94;5033917;28;20045;-52
2021/04/20 06:02:29;;;;;;;70.68;40.65;;;;;;;10.05;66.92;99621.25;5034666;28;20061;-51
2021/04/20 06:05:05;;;;;;;77.60;47.55;;;;;;;10.18;66.79;99630.50;5034946;28;20049;-52
2021/04/20 06:07:33;;;;;;;107.55;61.60;;;;;;;10.26;66.45;99633.78;5018657;28;20455;-52
2021/04/20 06:09:58;;;;;;;122.70;67.22;;;;;;;10.28;66.96;99628.53;5017660;28;20053;-52
2021/04/20 06:12:24;;;;;;;92.15;54.22;;;;;;;10.53;67.25;99629.59;5017356;28;20047;-52
2021/04/20 06:14:51;;;;;;;66.97;38.78;;;;;;;11.49;67.17;99632.88;5017357;28;20042;-52
2021/04/20 06:17:16;;;;;;;53.65;33.45;;;;;;;12.54;65.20;99623.22;5017593;28;20189;-52
2021/04/20 06:19:42;;;;;;;57.47;34.47;;;;;;;13.01;63.35;99620.59;5017433;28;20045;-52
2021/04/20 06:22:14;;;;;;;47.40;30.15;;;;;;;13.02;62.55;99624.09;5034447;28;20068;-53
2021/04/20 06:24:40;;;;;;;51.60;31.25;;;;;;;13.43;62.11;99625.16;5033876;28;20053;-52
2021/04/20 06:27:06;;;;;;;54.35;31.73;;;;;;;13.98;58.20;99628.19;5034587;28;20059;-53
2021/04/20 06:29:32;;;;;;;50.78;32.85;;;;;;;14.68;58.55;99623.44;5033616;28;20056;-52
2021/04/20 06:31:57;;;;;;;49.15;30.27;;;;;;;14.76;54.20;99625.75;5034288;28;20476;-52
2021/04/20 06:34:23;;;;;;;41.60;25.88;;;;;;;15.75;55.09;99625.50;5017023;28;20053;-52
2021/04/20 06:36:51;;;;;;;42.90;27.58;;;;;;;16.28;54.23;99628.09;5033629;28;20050;-52
2021/04/20 06:39:17;;;;;;;48.20;30.90;;;;;;;15.95;52.74;99625.34;5033268;28;20046;-53
2021/04/20 06:41:42;;;;;;;38.92;24.63;;;;;;;15.42;51.93;99623.53;5034020;28;20482;-52
2021/04/20 06:44:14;;;;;;;35.78;24.48;;;;;;;15.44;53.01;99621.69;5016996;28;20045;-52
2021/04/20 06:46:46;;;;;;;43.20;27.93;;;;;;;15.22;54.21;99615.72;5034150;28;20391;-52
2021/04/20 06:49:17;;;;;;;39.80;26.97;;;;;;;14.86;54.62;99622.63;5033444;28;20102;-53
2021/04/20 06:51:48;;;;;;;37.92;25.85;;;;;;;14.97;54.58;99624.75;5001341;28;20065;-53
2021/04/20 06:54:29;;;;;;;42.05;26.83;;;;;;;14.64;53.64;99619.22;5033926;28;20053;-53
2021/04/20 06:57:14;;;;;;;33.70;21.77;;;;;;;14.75;53.21;99621.38;5033286;28;20106;-52
2021/04/20 06:59:47;;;;;;;29.13;19.23;;;;;;;14.82;53.78;99610.50;5017852;28;20063;-52
2021/04/20 07:02:31;;;;;;;;;;;;;;;14.70;53.44;99616.31;5001248;28;20065;-53
2021/04/20 07:04:58;;;;;;;28.83;18.77;;;;;;;15.24;53.99;99609.44;5033105;28;19921;-52
2021/04/20 07:07:32;;;;;;;34.97;21.15;;;;;;;15.59;53.14;99607.72;5033139;28;20049;-52
2021/04/20 07:10:21;;;;;;;34.95;23.52;;;;;;;15.63;53.63;99606.66;5033125;28;20041;-52
2021/04/20 07:12:47;;;;;;;33.53;21.95;;;;;;;15.71;54.07;99610.75;5017890;28;20054;-52
2021/04/20 07:15:17;;;;;;;35.72;22.95;;;;;;;15.76;52.73;99608.72;5033049;28;20053;-53
2021/04/20 07:18:03;;;;;;;31.90;21.10;;;;;;;15.85;53.34;99603.81;5033568;28;20053;-53
2021/04/20 07:20:32;;;;;;;29.90;20.63;;;;;;;15.93;53.12;99602.63;5033024;28;20110;-52
2021/04/20 07:23:24;;;;;;;39.72;26.20;;;;;;;16.03;51.01;99604.69;5033764;28;20060;-52
2021/04/20 07:26:06;;;;;;;36.30;23.33;;;;;;;16.11;51.47;99601.66;5033778;28;20102;-53
2021/04/20 07:28:50;;;;;;;34.47;19.13;;;;;;;15.99;51.31;99597.00;5017691;28;20064;-52
2021/04/20 07:31:42;;;;;;;27.33;18.00;;;;;;;16.44;51.15;99599.06;5032830;28;20072;-52
2021/04/20 07:34:14;;;;;;;34.97;21.70;;;;;;;16.75;51.39;99598.31;5016416;28;20049;-53
2021/04/20 07:37:04;;;;;;;33.47;20.50;;;;;;;17.08;50.44;99596.56;5016250;28;20420;-52
2021/04/20 07:39:47;;;;;;;35.22;20.90;;;;;;;17.69;49.63;99598.41;5032768;28;20046;-53
2021/04/20 07:42:19;;;;;;;;;;;;;;;17.77;50.03;99595.34;5016524;28;20053;-53
2021/04/20 07:45:14;;;;;;;27.08;17.25;;;;;;;18.74;47.43;99604.56;5033482;28;19969;-53
2021/04/20 07:47:48;;;;;;;28.30;19.20;;;;;;;19.26;47.31;99597.75;5005321;28;20072;-53
2021/04/20 07:50:22;;;;;;;22.40;16.17;;;;;;;19.60;46.40;99594.63;5032240;28;20049;-53
2021/04/20 07:52:56;;;;;;;22.70;16.08;;;;;;;20.01;44.52;99593.69;5032273;28;20459;-53
2021/04/20 07:55:31;;;;;;;;;;;;;;;20.10;43.95;99597.56;5032637;28;20060;-53
2021/04/20 07:58:06;;;;;;;23.85;17.58;;;;;;;20.87;43.56;99593.13;5032165;28;19929;-53
2021/04/20 08:00:53;;;;;;;24.48;17.98;;;;;;;21.15;41.97;99596.47;5032463;28;20056;-53
2021/04/20 08:03:34;;;;;;;21.95;16.17;;;;;;;21.70;40.47;99589.78;5032575;28;20060;-53
2021/04/20 08:06:05;;;;;;;25.98;18.10;;;;;;;22.33;40.23;99588.56;5016124;28;20057;-53
2021/04/20 08:08:32;;;;;;;24.52;17.65;;;;;;;;;;5033156;28;20056;-53
2021/04/20 08:11:18;;;;;;;25.40;17.83;;;;;;;22.82;37.76;99590.06;5032298;28;20076;-53
2021/04/20 08:14:02;;;;;;;26.77;16.42;;;;;;;22.75;34.77;99586.19;5000092;28;20037;-53
2021/04/20 08:16:29;;;;;;;20.02;13.00;;;;;;;22.81;33.22;99585.69;5033095;28;20073;-54
2021/04/20 08:18:57;;;;;;;25.17;17.73;;;;;;;22.45;34.53;99586.75;5032179;28;20041;-53
2021/04/20 08:21:23;;;;;;;20.48;14.75;;;;;;;22.29;34.00;99581.75;5030257;28;20129;-54
2021/04/20 08:23:50;;;;;;;19.48;14.02;;;;;;;22.35;34.32;99575.94;5014262;28;20060;-53
2021/04/20 08:26:26;;;;;;;22.42;16.63;;;;;;;22.46;33.45;99587.63;5030122;28;20066;-53
2021/04/20 08:29:02;;;;;;;23.95;14.32;;;;;;;22.45;34.68;99581.41;5029975;28;20057;-54
2021/04/20 08:31:31;;;;;;;22.98;16.70;;;;;;;22.43;34.46;99582.53;5030087;28;20355;-54
2021/04/20 08:34:15;;;;;;;32.42;20.83;;;;;;;22.02;36.15;99582.03;5032567;28;20053;-54
2021/04/20 08:37:16;;;;;;;27.02;19.15;;;;;;;21.85;33.61;99574.47;5032439;28;20053;-54
2021/04/20 08:39:51;;;;;;;19.90;13.50;;;;;;;21.93;34.56;99577.38;5032012;28;20041;-53
2021/04/20 08:42:32;;;;;;;16.23;9.48;;;;;;;21.38;30.32;99577.00;5032589;28;20054;-54
2021/04/20 08:45:26;;;;;;;11.27;7.88;;;;;;;21.46;32.53;99581.78;5033104;28;20045;-54
2021/04/20 08:48:18;;;;;;;12.15;7.57;;;;;;;21.60;31.53;99575.44;5034749;28;20065;-54
2021/04/20 08:51:05;;;;;;;8.70;5.57;;;;;;;20.71;29.47;99577.38;5034864;28;20118;-54
2021/04/20 08:53:36;;;;;;;7.72;6.07;;;;;;;20.96;31.38;99578.28;5018893;28;20363;-54
2021/04/20 08:56:03;;;;;;;8.88;6.53;;;;;;;20.67;31.89;99575.03;5018434;28;20037;-54
2021/04/20 08:58:56;;;;;;;8.32;5.55;;;;;;;20.72;31.19;99570.25;5035214;28;20033;-54
2021/04/20 09:01:31;;;;;;;9.38;7.03;;;;;;;19.52;30.86;99570.34;5035526;28;20447;-54
2021/04/20 09:04:28;;;;;;;5.53;5.03;;;;;;;20.30;31.63;99578.41;5035977;28;20045;-54
2021/04/20 09:06:56;;;;;;;10.27;6.63;;;;;;;20.49;31.94;99575.34;5035228;28;20061;-54
2021/04/20 09:09:23;;;;;;;10.43;5.95;;;;;;;20.35;32.46;99582.59;5002480;28;20049;-54
2021/04/20 09:12:02;;;;;;;13.68;8.60;;;;;;;20.40;33.24;99567.16;5034963;28;20046;-54
2021/04/20 09:14:39;;;;;;;15.82;10.38;;;;;;;20.67;32.72;99565.25;5034999;28;20045;-54
2021/04/20 09:17:09;;;;;;;11.95;8.88;;;;;;;20.59;33.42;99564.94;5035442;28;20053;-53
2021/04/20 09:19:56;;;;;;;8.50;6.47;;;;;;;20.65;33.46;99561.00;5034889;28;20168;-54
2021/04/20 09:22:39;;;;;;;11.63;7.97;;;;;;;20.42;32.83;99568.75;5035717;28;20053;-54
2021/04/20 09:25:23;;;;;;;13.95;9.13;;;;;;;20.25;33.74;99563.75;5034827;28;20128;-54
2021/04/20 09:27:56;;;;;;;11.30;8.02;;;;;;;20.40;33.27;99554.69;5034533;28;20046;-54
2021/04/20 09:30:22;;;;;;;7.65;5.32;;;;;;;20.39;33.58;99560.13;5018855;28;20128;-54
2021/04/20 09:32:52;;;;;;;7.45;5.57;;;;;;;20.50;33.45;99565.53;5035184;28;20140;-54
2021/04/20 09:35:18;;;;;;;10.35;7.32;;;;;;;20.94;33.82;99553.59;5035264;28;20041;-54
2021/04/20 09:37:44;;;;;;;14.80;12.45;;;;;;;21.11;33.61;99553.22;5035105;28;20187;-54
2021/04/20 09:40:14;;;;;;;12.63;7.95;;;;;;;20.91;33.61;99557.34;5035108;28;20041;-54
2021/04/20 09:42:41;;;;;;;8.52;6.55;;;;;;;20.16;33.43;99559.91;5035362;28;20351;-54
2021/04/20 09:45:29;;;;;;;7.90;5.90;;;;;;;20.61;33.84;99559.53;5017948;28;20073;-53
2021/04/20 09:48:30;;;;;;;8.90;6.40;;;;;;;20.57;34.11;99550.88;5018090;28;20110;-53
2021/04/20 09:51:03;;;;;;;9.43;7.03;;;;;;;20.25;34.53;99555.78;5046328;28;20053;-53
2021/04/20 09:53:52;;;;;;;9.25;7.15;;;;;;;19.69;34.54;99552.50;5034708;28;20038;-53
2021/04/20 09:56:36;;;;;;;7.88;6.25;;;;;;;19.75;35.01;99550.28;5036400;28;20057;-53
2021/04/20 09:59:07;;;;;;;9.30;7.72;;;;;;;19.64;34.51;99558.13;5034559;28;20042;-53
2021/04/20 10:01:50;;;;;;;10.90;8.00;;;;;;;19.87;36.04;99555.72;5018111;28;20079;-53
2021/04/20 10:04:31;;;;;;;9.10;6.78;;;;;;;19.74;33.94;99547.72;5035324;28;20098;-53
2021/04/20 10:07:24;;;;;;;8.73;7.35;;;;;;;20.08;35.24;99540.97;5035045;28;20180;-53
2021/04/20 10:10:06;;;;;;;13.70;9.80;;;;;;;19.95;35.23;99548.06;5034202;28;20041;-54
2021/04/20 10:12:47;;;;;;;12.00;10.15;;;;;;;20.09;34.88;99545.34;5033865;28;20045;-53
2021/04/20 10:15:21;;;;;;;13.05;10.15;;;;;;;20.04;35.93;99544.78;5033806;28;20049;-54
2021/04/20 10:17:54;;;;;;;13.75;10.45;;;;;;;20.02;36.88;99544.06;5017967;28;20059;-54
2021/04/20 10:20:39;;;;;;;15.23;11.60;;;;;;;20.02;37.30;99542.25;5033929;28;20072;-54
2021/04/20 10:23:07;;;;;;;17.27;11.77;;;;;;;20.28;37.51;99534.31;5034737;28;20041;-54
2021/04/20 10:25:44;;;;;;;12.80;10.63;;;;;;;20.08;36.41;99541.84;5033576;28;20049;-54
2021/04/20 10:28:24;;;;;;;16.13;11.40;;;;;;;20.18;36.26;99543.84;5033928;28;20042;-54
2021/04/20 10:30:51;;;;;;;15.63;12.32;;;;;;;20.34;37.20;99536.50;5018064;28;20071;-54
2021/04/20 10:33:22;;;;;;;16.10;10.65;;;;;;;20.08;37.38;99535.66;5017523;28;20122;-54
2021/04/20 10:35:48;;;;;;;14.13;11.05;;;;;;;20.00;35.60;99528.22;5033701;28;20053;-54
2021/04/20 10:38:17;;;;;;;13.10;9.48;;;;;;;19.84;35.40;99530.22;5034178;28;20128;-54
2021/04/20 10:40:46;;;;;;;12.90;8.25;;;;;;;20.08;35.19;99533.00;5033370;28;20071;-54
2021/04/20 10:43:16;;;;;;;7.57;6.00;;;;;;;19.76;35.12;99529.84;5033594;28;20037;-54
2021/04/20 10:45:42;;;;;;;11.15;7.30;;;;;;;19.45;34.99;99520.41;5034393;28;20061;-54
2021/04/20 10:48:09;;;;;;;9.35;7.20;;;;;;;19.47;34.81;99526.50;5034331;28;20050;-54
2021/04/20 10:50:36;;;;;;;9.07;7.45;;;;;;;19.10;35.96;99529.72;5032617;28;20049;-54
2021/04/20 10:53:11;;;;;;;11.10;7.35;;;;;;;19.43;35.03;99519.66;5033125;28;20348;-54
2021/04/20 10:55:38;;;;;;;8.48;7.25;;;;;;;18.90;35.44;99524.84;5033939;28;20446;-54
2021/04/20 10:58:05;;;;;;;9.13;7.10;;;;;;;18.74;35.03;99518.81;5034235;28;20335;-54
2021/04/20 11:00:32;;;;;;;11.27;9.43;;;;;;;18.90;35.43;99515.09;5016487;28;20403;-53
2021/04/20 11:02:58;;;;;;;12.68;8.38;;;;;;;18.90;36.76;99525.69;5032641;28;20049;-54
2021/04/20 11:05:24;;;;;;;12.68;9.65;;;;;;;18.84;37.08;99526.09;5031646;28;20042;-53
2021/04/20 11:07:50;;;;;;;12.65;8.93;;;;;;;18.89;37.33;99518.69;5032349;28;20049;-53
2021/04/20 11:10:16;;;;;;;9.38;7.60;;;;;;;19.00;37.69;99510.03;5033381;28;20050;-53
2021/04/20 11:12:49;;;;;;;12.05;8.60;;;;;;;18.76;36.94;99511.63;5034247;28;20038;-53
2021/04/20 11:15:24;;;;;;;10.82;8.13;;;;;;;19.23;37.92;99513.84;5033976;28;20144;-53
2021/04/20 11:17:59;;;;;;;10.57;8.40;;;;;;;19.61;36.49;99510.47;5033639;28;20075;-53
2021/04/20 11:20:31;;;;;;;10.18;6.90;;;;;;;19.64;36.22;99506.81;5033067;28;20054;-54
2021/04/20 11:23:06;;;;;;;13.38;6.90;;;;;;;19.52;36.96;99506.63;5033282;28;20451;-53
2021/04/20 11:25:49;;;;;;;16.75;9.60;;;;;;;19.70;37.00;99496.59;5033840;28;20053;-53
2021/04/20 11:28:46;;;;;;;13.30;9.40;;;;;;;19.88;34.32;99494.50;5033798;28;20114;-53
2021/04/20 11:31:18;;;;;;;10.18;6.97;;;;;;;20.20;35.04;99494.09;5033440;28;20110;-53
2021/04/20 11:33:53;;;;;;;8.27;6.10;;;;;;;20.31;33.98;99488.84;5032291;28;20145;-53
2021/04/20 11:36:24;;;;;;;9.77;5.90;;;;;;;20.30;33.62;99495.13;5030883;28;20053;-53
2021/04/20 11:39:00;;;;;;;9.55;6.03;;;;;;;20.18;33.34;99491.53;5014702;28;20080;-53
2021/04/20 11:41:47;;;;;;;6.97;5.60;;;;;;;20.05;33.75;99494.19;5031968;28;20053;-53
2021/04/20 11:44:13;;;;;;;6.50;5.00;;;;;;;20.02;34.15;99502.38;5014922;28;20060;-53